sensor_id;sensor_type;location;lat;lon;timestamp;P1;durP1;ratioP1;P2;durP2;ratioP2
44430;SDS011;30135;47.866;-4.222;2023-10-13T00:00:31;22.85;;;4.07;;
44430;SDS011;30135;47.866;-4.222;2023-10-13T00:03:05;29.70;;;5.03;;
44430;SDS011;30135;47.866;-4.222;2023-10-13T00:05:34;28.85;;;5.15;;
44430;SDS011;30135;47.866;-4.222;2023-10-13T00:08:00;24.60;;;4.68;;
44430;SDS011;30135;47.866;-4.222;2023-10-13T00:10:28;15.55;;;3.63;;
44430;SDS011;30135;47.866;-4.222;2023-10-13T00:12:56;22.33;;;4.38;;
44430;SDS011;30135;47.866;-4.222;2023-10-13T00:15:45;20.08;;;5.22;;
44430;SDS011;30135;47.866;-4.222;2023-10-13T00:18:32;29.98;;;5.63;;
44430;SDS011;30135;47.866;-4.222;2023-10-13T00:21:02;20.23;;;4.25;;
44430;SDS011;30135;47.866;-4.222;2023-10-13T00:23:38;24.77;;;3.95;;
44430;SDS011;30135;47.866;-4.222;2023-10-13T00:26:18;12.85;;;2.95;;
44430;SDS011;30135;47.866;-4.222;2023-10-13T00:28:48;17.73;;;3.03;;
44430;SDS011;30135;47.866;-4.222;2023-10-13T00:31:24;25.67;;;4.35;;
44430;SDS011;30135;47.866;-4.222;2023-10-13T00:34:01;20.45;;;4.43;;
44430;SDS011;30135;47.866;-4.222;2023-10-13T00:36:46;23.80;;;3.80;;
44430;SDS011;30135;47.866;-4.222;2023-10-13T00:39:31;15.15;;;3.90;;
44430;SDS011;30135;47.866;-4.222;2023-10-13T00:42:02;21.80;;;3.88;;
44430;SDS011;30135;47.866;-4.222;2023-10-13T00:44:33;26.67;;;5.47;;
44430;SDS011;30135;47.866;-4.222;2023-10-13T00:47:19;20.95;;;3.60;;
44430;SDS011;30135;47.866;-4.222;2023-10-13T00:50:05;17.70;;;5.70;;
44430;SDS011;30135;47.866;-4.222;2023-10-13T00:52:36;28.90;;;5.60;;
44430;SDS011;30135;47.866;-4.222;2023-10-13T00:55:06;14.55;;;3.95;;
44430;SDS011;30135;47.866;-4.222;2023-10-13T00:57:33;13.65;;;3.60;;
44430;SDS011;30135;47.866;-4.222;2023-10-13T01:00:00;23.30;;;3.75;;
44430;SDS011;30135;47.866;-4.222;2023-10-13T01:02:43;20.55;;;5.13;;
44430;SDS011;30135;47.866;-4.222;2023-10-13T01:05:19;20.45;;;4.53;;
44430;SDS011;30135;47.866;-4.222;2023-10-13T01:07:49;16.65;;;3.88;;
44430;SDS011;30135;47.866;-4.222;2023-10-13T01:10:19;24.80;;;3.40;;
44430;SDS011;30135;47.866;-4.222;2023-10-13T01:12:51;11.82;;;3.38;;
44430;SDS011;30135;47.866;-4.222;2023-10-13T01:15:17;12.93;;;3.17;;
44430;SDS011;30135;47.866;-4.222;2023-10-13T01:17:47;20.20;;;4.95;;
44430;SDS011;30135;47.866;-4.222;2023-10-13T01:20:16;21.63;;;4.63;;
44430;SDS011;30135;47.866;-4.222;2023-10-13T01:22:45;19.48;;;4.72;;
44430;SDS011;30135;47.866;-4.222;2023-10-13T01:25:21;18.42;;;3.95;;
44430;SDS011;30135;47.866;-4.222;2023-10-13T01:27:53;12.20;;;3.45;;
44430;SDS011;30135;47.866;-4.222;2023-10-13T01:30:20;15.63;;;4.20;;
44430;SDS011;30135;47.866;-4.222;2023-10-13T01:35:17;16.20;;;4.15;;
44430;SDS011;30135;47.866;-4.222;2023-10-13T01:38:06;23.05;;;4.38;;
44430;SDS011;30135;47.866;-4.222;2023-10-13T01:40:32;15.38;;;3.65;;
44430;SDS011;30135;47.866;-4.222;2023-10-13T01:43:00;17.85;;;4.47;;
44430;SDS011;30135;47.866;-4.222;2023-10-13T01:45:29;25.88;;;4.78;;
44430;SDS011;30135;47.866;-4.222;2023-10-13T01:47:55;21.40;;;3.50;;
44430;SDS011;30135;47.866;-4.222;2023-10-13T01:50:22;19.77;;;3.75;;
44430;SDS011;30135;47.866;-4.222;2023-10-13T01:52:55;12.52;;;3.45;;
44430;SDS011;30135;47.866;-4.222;2023-10-13T01:55:40;13.43;;;3.47;;
44430;SDS011;30135;47.866;-4.222;2023-10-13T01:58:12;14.98;;;4.03;;
44430;SDS011;30135;47.866;-4.222;2023-10-13T02:00:59;29.00;;;4.68;;
44430;SDS011;30135;47.866;-4.222;2023-10-13T02:03:25;15.38;;;4.43;;
44430;SDS011;30135;47.866;-4.222;2023-10-13T02:05:54;15.13;;;3.58;;
44430;SDS011;30135;47.866;-4.222;2023-10-13T02:08:23;18.45;;;4.60;;
44430;SDS011;30135;47.866;-4.222;2023-10-13T02:10:54;33.47;;;5.95;;
44430;SDS011;30135;47.866;-4.222;2023-10-13T02:13:23;34.25;;;5.10;;
44430;SDS011;30135;47.866;-4.222;2023-10-13T02:15:55;29.67;;;4.93;;
44430;SDS011;30135;47.866;-4.222;2023-10-13T02:18:23;20.90;;;4.30;;
44430;SDS011;30135;47.866;-4.222;2023-10-13T02:20:53;28.08;;;6.03;;
44430;SDS011;30135;47.866;-4.222;2023-10-13T02:23:29;38.67;;;4.90;;
44430;SDS011;30135;47.866;-4.222;2023-10-13T02:25:56;22.42;;;5.28;;
44430;SDS011;30135;47.866;-4.222;2023-10-13T02:28:36;22.52;;;4.65;;
44430;SDS011;30135;47.866;-4.222;2023-10-13T02:31:02;18.45;;;4.82;;
44430;SDS011;30135;47.866;-4.222;2023-10-13T02:33:30;18.58;;;4.50;;
44430;SDS011;30135;47.866;-4.222;2023-10-13T02:36:00;25.02;;;6.18;;
44430;SDS011;30135;47.866;-4.222;2023-10-13T02:38:30;19.05;;;4.07;;
44430;SDS011;30135;47.866;-4.222;2023-10-13T02:41:13;13.70;;;3.70;;
44430;SDS011;30135;47.866;-4.222;2023-10-13T02:43:52;20.80;;;4.45;;
44430;SDS011;30135;47.866;-4.222;2023-10-13T02:46:19;29.23;;;4.50;;
44430;SDS011;30135;47.866;-4.222;2023-10-13T02:48:55;18.35;;;4.38;;
44430;SDS011;30135;47.866;-4.222;2023-10-13T02:51:23;25.58;;;3.42;;
44430;SDS011;30135;47.866;-4.222;2023-10-13T02:54:15;30.05;;;5.65;;
44430;SDS011;30135;47.866;-4.222;2023-10-13T02:56:45;17.05;;;4.35;;
44430;SDS011;30135;47.866;-4.222;2023-10-13T02:59:22;21.40;;;4.72;;
44430;SDS011;30135;47.866;-4.222;2023-10-13T03:02:08;18.58;;;3.80;;
44430;SDS011;30135;47.866;-4.222;2023-10-13T03:04:46;17.17;;;5.07;;
44430;SDS011;30135;47.866;-4.222;2023-10-13T03:07:13;29.77;;;4.80;;
44430;SDS011;30135;47.866;-4.222;2023-10-13T03:09:49;19.60;;;4.40;;
44430;SDS011;30135;47.866;-4.222;2023-10-13T03:12:16;33.70;;;5.45;;
44430;SDS011;30135;47.866;-4.222;2023-10-13T03:14:42;18.48;;;4.40;;
44430;SDS011;30135;47.866;-4.222;2023-10-13T03:17:13;32.70;;;5.15;;
44430;SDS011;30135;47.866;-4.222;2023-10-13T03:19:43;36.90;;;3.83;;
44430;SDS011;30135;47.866;-4.222;2023-10-13T03:22:17;18.98;;;5.93;;
44430;SDS011;30135;47.866;-4.222;2023-10-13T03:24:43;23.30;;;5.20;;
44430;SDS011;30135;47.866;-4.222;2023-10-13T03:27:15;26.20;;;5.40;;
44430;SDS011;30135;47.866;-4.222;2023-10-13T03:29:48;15.23;;;3.75;;
44430;SDS011;30135;47.866;-4.222;2023-10-13T03:32:19;20.45;;;4.95;;
44430;SDS011;30135;47.866;-4.222;2023-10-13T03:34:46;25.60;;;4.53;;
44430;SDS011;30135;47.866;-4.222;2023-10-13T03:37:31;22.10;;;4.43;;
44430;SDS011;30135;47.866;-4.222;2023-10-13T03:40:04;28.00;;;5.32;;
44430;SDS011;30135;47.866;-4.222;2023-10-13T03:42:41;22.35;;;4.85;;
44430;SDS011;30135;47.866;-4.222;2023-10-13T03:45:07;23.95;;;5.13;;
44430;SDS011;30135;47.866;-4.222;2023-10-13T03:47:36;23.73;;;4.03;;
44430;SDS011;30135;47.866;-4.222;2023-10-13T03:50:04;14.68;;;4.80;;
44430;SDS011;30135;47.866;-4.222;2023-10-13T03:52:40;20.73;;;3.78;;
44430;SDS011;30135;47.866;-4.222;2023-10-13T03:55:07;38.17;;;4.88;;
44430;SDS011;30135;47.866;-4.222;2023-10-13T03:57:42;23.60;;;4.70;;
44430;SDS011;30135;47.866;-4.222;2023-10-13T04:00:08;27.92;;;4.65;;
44430;SDS011;30135;47.866;-4.222;2023-10-13T04:02:38;17.42;;;3.95;;
44430;SDS011;30135;47.866;-4.222;2023-10-13T04:05:10;23.17;;;3.95;;
44430;SDS011;30135;47.866;-4.222;2023-10-13T04:08:01;18.65;;;5.13;;
44430;SDS011;30135;47.866;-4.222;2023-10-13T04:10:48;26.15;;;3.75;;
44430;SDS011;30135;47.866;-4.222;2023-10-13T04:13:16;24.58;;;5.47;;
44430;SDS011;30135;47.866;-4.222;2023-10-13T04:16:00;25.55;;;5.47;;
44430;SDS011;30135;47.866;-4.222;2023-10-13T04:18:45;18.50;;;4.55;;
44430;SDS011;30135;47.866;-4.222;2023-10-13T04:21:22;22.75;;;4.57;;
44430;SDS011;30135;47.866;-4.222;2023-10-13T04:24:10;19.90;;;5.30;;
44430;SDS011;30135;47.866;-4.222;2023-10-13T04:26:43;28.38;;;6.60;;
44430;SDS011;30135;47.866;-4.222;2023-10-13T04:29:29;40.85;;;4.82;;
44430;SDS011;30135;47.866;-4.222;2023-10-13T04:32:16;20.73;;;4.28;;
44430;SDS011;30135;47.866;-4.222;2023-10-13T04:34:58;23.67;;;4.57;;
44430;SDS011;30135;47.866;-4.222;2023-10-13T04:37:38;20.73;;;4.03;;
44430;SDS011;30135;47.866;-4.222;2023-10-13T04:40:26;25.65;;;5.60;;
44430;SDS011;30135;47.866;-4.222;2023-10-13T04:43:00;20.88;;;5.07;;
44430;SDS011;30135;47.866;-4.222;2023-10-13T04:45:42;18.73;;;3.67;;
44430;SDS011;30135;47.866;-4.222;2023-10-13T04:48:19;21.45;;;4.65;;
44430;SDS011;30135;47.866;-4.222;2023-10-13T04:50:48;31.70;;;4.80;;
44430;SDS011;30135;47.866;-4.222;2023-10-13T04:56:26;33.00;;;5.00;;
44430;SDS011;30135;47.866;-4.222;2023-10-13T04:59:07;19.55;;;3.85;;
44430;SDS011;30135;47.866;-4.222;2023-10-13T05:01:52;33.83;;;4.10;;
44430;SDS011;30135;47.866;-4.222;2023-10-13T05:04:36;16.95;;;5.32;;
44430;SDS011;30135;47.866;-4.222;2023-10-13T05:07:04;24.70;;;4.53;;
44430;SDS011;30135;47.866;-4.222;2023-10-13T05:09:49;29.63;;;6.00;;
44430;SDS011;30135;47.866;-4.222;2023-10-13T05:12:33;22.90;;;3.88;;
44430;SDS011;30135;47.866;-4.222;2023-10-13T05:15:18;26.33;;;5.95;;
44430;SDS011;30135;47.866;-4.222;2023-10-13T05:18:23;14.77;;;4.18;;
44430;SDS011;30135;47.866;-4.222;2023-10-13T05:21:07;22.10;;;4.05;;
44430;SDS011;30135;47.866;-4.222;2023-10-13T05:23:52;24.92;;;5.13;;
44430;SDS011;30135;47.866;-4.222;2023-10-13T05:26:36;27.55;;;5.00;;
44430;SDS011;30135;47.866;-4.222;2023-10-13T05:29:21;15.63;;;3.53;;
44430;SDS011;30135;47.866;-4.222;2023-10-13T05:32:05;19.80;;;3.83;;
44430;SDS011;30135;47.866;-4.222;2023-10-13T05:34:49;22.15;;;3.97;;
44430;SDS011;30135;47.866;-4.222;2023-10-13T05:37:34;38.80;;;4.45;;
44430;SDS011;30135;47.866;-4.222;2023-10-13T05:40:18;15.02;;;3.20;;
44430;SDS011;30135;47.866;-4.222;2023-10-13T05:43:03;21.20;;;4.45;;
44430;SDS011;30135;47.866;-4.222;2023-10-13T05:45:47;31.83;;;4.30;;
44430;SDS011;30135;47.866;-4.222;2023-10-13T05:48:32;24.80;;;3.90;;
44430;SDS011;30135;47.866;-4.222;2023-10-13T05:51:31;32.78;;;4.55;;
44430;SDS011;30135;47.866;-4.222;2023-10-13T05:54:01;24.75;;;5.03;;
44430;SDS011;30135;47.866;-4.222;2023-10-13T05:59:45;24.85;;;5.03;;
44430;SDS011;30135;47.866;-4.222;2023-10-13T06:02:29;23.50;;;4.88;;
44430;SDS011;30135;47.866;-4.222;2023-10-13T06:05:14;17.40;;;5.18;;
44430;SDS011;30135;47.866;-4.222;2023-10-13T06:07:58;27.35;;;5.22;;
44430;SDS011;30135;47.866;-4.222;2023-10-13T06:10:43;18.80;;;4.47;;
44430;SDS011;30135;47.866;-4.222;2023-10-13T06:13:28;27.25;;;4.15;;
44430;SDS011;30135;47.866;-4.222;2023-10-13T06:16:13;26.98;;;5.13;;
44430;SDS011;30135;47.866;-4.222;2023-10-13T06:18:59;36.38;;;5.10;;
44430;SDS011;30135;47.866;-4.222;2023-10-13T06:21:44;27.33;;;6.28;;
44430;SDS011;30135;47.866;-4.222;2023-10-13T06:24:29;29.10;;;5.32;;
44430;SDS011;30135;47.866;-4.222;2023-10-13T06:27:17;22.40;;;5.95;;
44430;SDS011;30135;47.866;-4.222;2023-10-13T06:30:02;27.88;;;5.53;;
44430;SDS011;30135;47.866;-4.222;2023-10-13T06:32:31;21.75;;;5.20;;
44430;SDS011;30135;47.866;-4.222;2023-10-13T06:34:58;37.53;;;5.18;;
44430;SDS011;30135;47.866;-4.222;2023-10-13T06:37:31;26.55;;;5.63;;
44430;SDS011;30135;47.866;-4.222;2023-10-13T06:40:02;37.42;;;5.47;;
44430;SDS011;30135;47.866;-4.222;2023-10-13T06:42:55;33.60;;;5.70;;
44430;SDS011;30135;47.866;-4.222;2023-10-13T06:45:36;32.42;;;6.70;;
44430;SDS011;30135;47.866;-4.222;2023-10-13T06:48:03;27.45;;;5.10;;
44430;SDS011;30135;47.866;-4.222;2023-10-13T06:50:31;27.13;;;6.30;;
44430;SDS011;30135;47.866;-4.222;2023-10-13T06:53:04;57.80;;;7.07;;
44430;SDS011;30135;47.866;-4.222;2023-10-13T06:55:30;30.65;;;6.00;;
44430;SDS011;30135;47.866;-4.222;2023-10-13T06:58:05;38.60;;;6.30;;
44430;SDS011;30135;47.866;-4.222;2023-10-13T07:00:32;25.63;;;5.63;;
44430;SDS011;30135;47.866;-4.222;2023-10-13T07:03:02;36.22;;;7.95;;
44430;SDS011;30135;47.866;-4.222;2023-10-13T07:05:37;34.30;;;6.28;;
44430;SDS011;30135;47.866;-4.222;2023-10-13T07:08:07;28.98;;;5.35;;
44430;SDS011;30135;47.866;-4.222;2023-10-13T07:13:19;31.20;;;4.90;;
44430;SDS011;30135;47.866;-4.222;2023-10-13T07:15:45;30.55;;;5.05;;
44430;SDS011;30135;47.866;-4.222;2023-10-13T07:18:12;40.53;;;5.63;;
44430;SDS011;30135;47.866;-4.222;2023-10-13T07:20:41;19.90;;;4.45;;
44430;SDS011;30135;47.866;-4.222;2023-10-13T07:23:09;32.33;;;6.68;;
44430;SDS011;30135;47.866;-4.222;2023-10-13T07:25:43;42.67;;;5.30;;
44430;SDS011;30135;47.866;-4.222;2023-10-13T07:28:19;37.50;;;6.72;;
44430;SDS011;30135;47.866;-4.222;2023-10-13T07:30:46;37.35;;;4.85;;
44430;SDS011;30135;47.866;-4.222;2023-10-13T07:33:19;41.75;;;7.00;;
44430;SDS011;30135;47.866;-4.222;2023-10-13T07:36:01;39.90;;;6.80;;
44430;SDS011;30135;47.866;-4.222;2023-10-13T07:38:36;45.55;;;7.10;;
44430;SDS011;30135;47.866;-4.222;2023-10-13T07:41:07;35.08;;;5.93;;
44430;SDS011;30135;47.866;-4.222;2023-10-13T07:43:36;47.70;;;5.68;;
44430;SDS011;30135;47.866;-4.222;2023-10-13T07:46:03;38.33;;;8.68;;
44430;SDS011;30135;47.866;-4.222;2023-10-13T07:48:36;40.03;;;5.55;;
44430;SDS011;30135;47.866;-4.222;2023-10-13T07:51:03;40.67;;;6.05;;
44430;SDS011;30135;47.866;-4.222;2023-10-13T07:53:42;56.17;;;8.02;;
44430;SDS011;30135;47.866;-4.222;2023-10-13T07:56:10;40.63;;;5.63;;
44430;SDS011;30135;47.866;-4.222;2023-10-13T07:58:37;29.98;;;4.97;;
44430;SDS011;30135;47.866;-4.222;2023-10-13T08:01:25;37.35;;;6.55;;
44430;SDS011;30135;47.866;-4.222;2023-10-13T08:03:52;39.78;;;6.97;;
44430;SDS011;30135;47.866;-4.222;2023-10-13T08:06:34;43.70;;;6.68;;
44430;SDS011;30135;47.866;-4.222;2023-10-13T08:09:02;40.80;;;6.22;;
44430;SDS011;30135;47.866;-4.222;2023-10-13T08:11:37;39.25;;;6.70;;
44430;SDS011;30135;47.866;-4.222;2023-10-13T08:14:03;48.33;;;6.55;;
44430;SDS011;30135;47.866;-4.222;2023-10-13T08:16:57;46.97;;;7.88;;
44430;SDS011;30135;47.866;-4.222;2023-10-13T08:19:29;41.33;;;6.70;;
44430;SDS011;30135;47.866;-4.222;2023-10-13T08:22:11;38.53;;;6.88;;
44430;SDS011;30135;47.866;-4.222;2023-10-13T08:24:43;52.67;;;6.07;;
44430;SDS011;30135;47.866;-4.222;2023-10-13T08:27:10;26.58;;;5.68;;
44430;SDS011;30135;47.866;-4.222;2023-10-13T08:29:43;33.95;;;5.30;;
44430;SDS011;30135;47.866;-4.222;2023-10-13T08:32:26;51.53;;;6.78;;
44430;SDS011;30135;47.866;-4.222;2023-10-13T08:34:53;37.25;;;5.47;;
44430;SDS011;30135;47.866;-4.222;2023-10-13T08:37:20;42.63;;;7.45;;
44430;SDS011;30135;47.866;-4.222;2023-10-13T08:39:53;33.47;;;6.18;;
44430;SDS011;30135;47.866;-4.222;2023-10-13T08:42:28;40.90;;;5.63;;
44430;SDS011;30135;47.866;-4.222;2023-10-13T08:45:16;26.92;;;4.60;;
44430;SDS011;30135;47.866;-4.222;2023-10-13T08:50:37;44.30;;;5.45;;
44430;SDS011;30135;47.866;-4.222;2023-10-13T08:53:25;32.55;;;5.10;;
44430;SDS011;30135;47.866;-4.222;2023-10-13T08:58:43;34.97;;;5.55;;
44430;SDS011;30135;47.866;-4.222;2023-10-13T09:01:18;37.03;;;5.63;;
44430;SDS011;30135;47.866;-4.222;2023-10-13T09:04:05;39.97;;;4.63;;
44430;SDS011;30135;47.866;-4.222;2023-10-13T09:09:25;31.60;;;4.13;;
44430;SDS011;30135;47.866;-4.222;2023-10-13T09:12:15;23.88;;;4.82;;
44430;SDS011;30135;47.866;-4.222;2023-10-13T09:14:58;30.70;;;4.22;;
44430;SDS011;30135;47.866;-4.222;2023-10-13T09:17:44;20.65;;;5.07;;
44430;SDS011;30135;47.866;-4.222;2023-10-13T09:20:17;36.10;;;6.38;;
44430;SDS011;30135;47.866;-4.222;2023-10-13T09:23:13;31.67;;;4.43;;
44430;SDS011;30135;47.866;-4.222;2023-10-13T09:25:50;22.08;;;3.38;;
44430;SDS011;30135;47.866;-4.222;2023-10-13T09:28:23;24.75;;;2.95;;
44430;SDS011;30135;47.866;-4.222;2023-10-13T09:30:56;27.23;;;4.38;;
44430;SDS011;30135;47.866;-4.222;2023-10-13T09:33:23;41.78;;;4.90;;
44430;SDS011;30135;47.866;-4.222;2023-10-13T09:35:58;26.25;;;3.70;;
44430;SDS011;30135;47.866;-4.222;2023-10-13T09:38:28;29.88;;;4.75;;
44430;SDS011;30135;47.866;-4.222;2023-10-13T09:43:23;21.67;;;3.05;;
44430;SDS011;30135;47.866;-4.222;2023-10-13T09:45:50;37.00;;;3.72;;
44430;SDS011;30135;47.866;-4.222;2023-10-13T09:48:36;27.80;;;3.08;;
44430;SDS011;30135;47.866;-4.222;2023-10-13T09:51:14;30.35;;;3.95;;
44430;SDS011;30135;47.866;-4.222;2023-10-13T09:59:50;20.73;;;2.38;;
44430;SDS011;30135;47.866;-4.222;2023-10-13T10:02:34;24.58;;;2.70;;
44430;SDS011;30135;47.866;-4.222;2023-10-13T10:05:00;32.10;;;3.05;;
44430;SDS011;30135;47.866;-4.222;2023-10-13T10:07:45;24.90;;;4.90;;
44430;SDS011;30135;47.866;-4.222;2023-10-13T10:13:47;21.92;;;2.50;;
44430;SDS011;30135;47.866;-4.222;2023-10-13T10:16:35;24.02;;;3.65;;
44430;SDS011;30135;47.866;-4.222;2023-10-13T10:19:33;22.67;;;3.58;;
44430;SDS011;30135;47.866;-4.222;2023-10-13T10:22:13;20.17;;;2.72;;
44430;SDS011;30135;47.866;-4.222;2023-10-13T10:25:01;28.77;;;2.78;;
44430;SDS011;30135;47.866;-4.222;2023-10-13T10:30:24;17.60;;;2.13;;
44430;SDS011;30135;47.866;-4.222;2023-10-13T10:32:58;18.25;;;3.35;;
44430;SDS011;30135;47.866;-4.222;2023-10-13T10:35:25;30.08;;;5.13;;
44430;SDS011;30135;47.866;-4.222;2023-10-13T10:38:14;16.13;;;3.92;;
44430;SDS011;30135;47.866;-4.222;2023-10-13T10:41:06;23.58;;;2.53;;
44430;SDS011;30135;47.866;-4.222;2023-10-13T10:43:38;22.02;;;3.97;;
44430;SDS011;30135;47.866;-4.222;2023-10-13T10:48:44;21.75;;;2.40;;
44430;SDS011;30135;47.866;-4.222;2023-10-13T10:51:11;23.92;;;3.00;;
44430;SDS011;30135;47.866;-4.222;2023-10-13T10:53:53;24.02;;;2.70;;
44430;SDS011;30135;47.866;-4.222;2023-10-13T10:56:25;16.75;;;2.60;;
44430;SDS011;30135;47.866;-4.222;2023-10-13T10:59:02;25.55;;;4.30;;
44430;SDS011;30135;47.866;-4.222;2023-10-13T11:01:30;22.70;;;3.20;;
44430;SDS011;30135;47.866;-4.222;2023-10-13T11:04:12;22.15;;;2.97;;
44430;SDS011;30135;47.866;-4.222;2023-10-13T11:06:49;26.48;;;2.75;;
44430;SDS011;30135;47.866;-4.222;2023-10-13T11:09:24;25.40;;;3.15;;
44430;SDS011;30135;47.866;-4.222;2023-10-13T11:15:07;21.98;;;2.83;;
44430;SDS011;30135;47.866;-4.222;2023-10-13T11:17:40;30.17;;;2.90;;
44430;SDS011;30135;47.866;-4.222;2023-10-13T11:20:23;13.70;;;2.03;;
44430;SDS011;30135;47.866;-4.222;2023-10-13T11:22:58;31.05;;;5.30;;
44430;SDS011;30135;47.866;-4.222;2023-10-13T11:25:31;21.92;;;3.13;;
44430;SDS011;30135;47.866;-4.222;2023-10-13T11:31:03;23.92;;;5.35;;
44430;SDS011;30135;47.866;-4.222;2023-10-13T11:33:44;28.38;;;4.22;;
44430;SDS011;30135;47.866;-4.222;2023-10-13T11:38:46;20.58;;;3.80;;
44430;SDS011;30135;47.866;-4.222;2023-10-13T11:41:12;23.13;;;3.42;;
44430;SDS011;30135;47.866;-4.222;2023-10-13T11:43:51;17.00;;;3.20;;
44430;SDS011;30135;47.866;-4.222;2023-10-13T11:46:28;19.58;;;4.15;;
44430;SDS011;30135;47.866;-4.222;2023-10-13T11:49:01;28.02;;;4.97;;
44430;SDS011;30135;47.866;-4.222;2023-10-13T11:51:45;35.08;;;3.80;;
44430;SDS011;30135;47.866;-4.222;2023-10-13T11:56:48;25.45;;;2.95;;
44430;SDS011;30135;47.866;-4.222;2023-10-13T11:59:15;23.00;;;3.67;;
44430;SDS011;30135;47.866;-4.222;2023-10-13T12:01:49;24.40;;;3.17;;
44430;SDS011;30135;47.866;-4.222;2023-10-13T12:04:34;26.08;;;2.78;;
44430;SDS011;30135;47.866;-4.222;2023-10-13T12:07:19;20.55;;;2.53;;
44430;SDS011;30135;47.866;-4.222;2023-10-13T12:09:52;30.48;;;3.20;;
44430;SDS011;30135;47.866;-4.222;2023-10-13T12:14:52;30.58;;;4.00;;
44430;SDS011;30135;47.866;-4.222;2023-10-13T12:17:34;20.52;;;2.47;;
44430;SDS011;30135;47.866;-4.222;2023-10-13T12:20:01;21.20;;;3.47;;
44430;SDS011;30135;47.866;-4.222;2023-10-13T12:22:30;28.58;;;4.70;;
44430;SDS011;30135;47.866;-4.222;2023-10-13T12:25:16;35.63;;;4.13;;
44430;SDS011;30135;47.866;-4.222;2023-10-13T12:27:57;21.60;;;2.58;;
44430;SDS011;30135;47.866;-4.222;2023-10-13T12:30:37;35.50;;;4.82;;
44430;SDS011;30135;47.866;-4.222;2023-10-13T12:33:19;37.47;;;3.03;;
44430;SDS011;30135;47.866;-4.222;2023-10-13T12:36:02;31.35;;;4.47;;
44430;SDS011;30135;47.866;-4.222;2023-10-13T12:38:41;19.70;;;3.25;;
44430;SDS011;30135;47.866;-4.222;2023-10-13T12:41:16;24.10;;;3.70;;
44430;SDS011;30135;47.866;-4.222;2023-10-13T12:44:02;28.40;;;3.60;;
44430;SDS011;30135;47.866;-4.222;2023-10-13T12:46:47;35.05;;;3.58;;
44430;SDS011;30135;47.866;-4.222;2023-10-13T12:49:32;27.65;;;3.72;;
44430;SDS011;30135;47.866;-4.222;2023-10-13T12:52:10;17.75;;;4.25;;
44430;SDS011;30135;47.866;-4.222;2023-10-13T12:55:03;22.83;;;3.28;;
44430;SDS011;30135;47.866;-4.222;2023-10-13T12:57:35;27.42;;;3.92;;
44430;SDS011;30135;47.866;-4.222;2023-10-13T13:00:08;28.52;;;4.32;;
44430;SDS011;30135;47.866;-4.222;2023-10-13T13:02:45;19.33;;;4.53;;
44430;SDS011;30135;47.866;-4.222;2023-10-13T13:05:12;17.85;;;3.90;;
44430;SDS011;30135;47.866;-4.222;2023-10-13T13:07:39;24.75;;;3.63;;
44430;SDS011;30135;47.866;-4.222;2023-10-13T13:10:12;28.35;;;4.20;;
44430;SDS011;30135;47.866;-4.222;2023-10-13T13:12:40;25.38;;;4.45;;
44430;SDS011;30135;47.866;-4.222;2023-10-13T13:15:07;28.52;;;3.42;;
44430;SDS011;30135;47.866;-4.222;2023-10-13T13:17:37;39.40;;;5.40;;
44430;SDS011;30135;47.866;-4.222;2023-10-13T13:20:05;23.67;;;3.90;;
44430;SDS011;30135;47.866;-4.222;2023-10-13T13:22:52;23.77;;;4.38;;
44430;SDS011;30135;47.866;-4.222;2023-10-13T13:25:27;36.90;;;3.97;;
44430;SDS011;30135;47.866;-4.222;2023-10-13T13:27:55;19.52;;;3.67;;
44430;SDS011;30135;47.866;-4.222;2023-10-13T13:30:24;29.38;;;5.20;;
44430;SDS011;30135;47.866;-4.222;2023-10-13T13:32:57;30.75;;;4.43;;
44430;SDS011;30135;47.866;-4.222;2023-10-13T13:35:28;23.65;;;3.45;;
44430;SDS011;30135;47.866;-4.222;2023-10-13T13:38:00;24.95;;;3.58;;
44430;SDS011;30135;47.866;-4.222;2023-10-13T13:40:36;33.80;;;4.53;;
44430;SDS011;30135;47.866;-4.222;2023-10-13T13:43:03;26.98;;;3.70;;
44430;SDS011;30135;47.866;-4.222;2023-10-13T13:45:29;21.33;;;3.47;;
44430;SDS011;30135;47.866;-4.222;2023-10-13T13:47:57;28.85;;;3.90;;
44430;SDS011;30135;47.866;-4.222;2023-10-13T13:50:24;30.95;;;4.70;;
44430;SDS011;30135;47.866;-4.222;2023-10-13T13:52:53;18.35;;;2.92;;
44430;SDS011;30135;47.866;-4.222;2023-10-13T13:55:22;23.90;;;5.63;;
44430;SDS011;30135;47.866;-4.222;2023-10-13T13:57:49;23.77;;;3.47;;
44430;SDS011;30135;47.866;-4.222;2023-10-13T14:00:18;31.45;;;4.63;;
44430;SDS011;30135;47.866;-4.222;2023-10-13T14:03:05;15.73;;;2.75;;
44430;SDS011;30135;47.866;-4.222;2023-10-13T14:05:48;30.27;;;5.55;;
44430;SDS011;30135;47.866;-4.222;2023-10-13T14:08:15;32.22;;;3.78;;
44430;SDS011;30135;47.866;-4.222;2023-10-13T14:10:42;23.52;;;2.95;;
44430;SDS011;30135;47.866;-4.222;2023-10-13T14:13:26;17.23;;;3.28;;
44430;SDS011;30135;47.866;-4.222;2023-10-13T14:16:12;30.63;;;3.20;;
44430;SDS011;30135;47.866;-4.222;2023-10-13T14:18:50;27.08;;;3.25;;
44430;SDS011;30135;47.866;-4.222;2023-10-13T14:21:17;25.70;;;2.40;;
44430;SDS011;30135;47.866;-4.222;2023-10-13T14:23:47;25.60;;;2.72;;
44430;SDS011;30135;47.866;-4.222;2023-10-13T14:26:15;15.68;;;2.53;;
44430;SDS011;30135;47.866;-4.222;2023-10-13T14:28:53;23.50;;;3.17;;
44430;SDS011;30135;47.866;-4.222;2023-10-13T14:31:28;23.17;;;3.47;;
44430;SDS011;30135;47.866;-4.222;2023-10-13T14:33:55;25.17;;;3.78;;
44430;SDS011;30135;47.866;-4.222;2023-10-13T14:36:22;12.13;;;2.25;;
44430;SDS011;30135;47.866;-4.222;2023-10-13T14:38:49;13.55;;;2.20;;
44430;SDS011;30135;47.866;-4.222;2023-10-13T14:41:15;29.42;;;2.88;;
44430;SDS011;30135;47.866;-4.222;2023-10-13T14:43:43;20.30;;;3.53;;
44430;SDS011;30135;47.866;-4.222;2023-10-13T14:46:16;18.05;;;2.33;;
44430;SDS011;30135;47.866;-4.222;2023-10-13T14:48:51;24.40;;;3.38;;
44430;SDS011;30135;47.866;-4.222;2023-10-13T14:51:18;21.60;;;2.80;;
44430;SDS011;30135;47.866;-4.222;2023-10-13T14:53:44;14.07;;;2.83;;
44430;SDS011;30135;47.866;-4.222;2023-10-13T14:56:14;35.55;;;3.30;;
44430;SDS011;30135;47.866;-4.222;2023-10-13T14:58:43;14.65;;;2.35;;
44430;SDS011;30135;47.866;-4.222;2023-10-13T15:03:46;25.20;;;2.60;;
44430;SDS011;30135;47.866;-4.222;2023-10-13T15:06:18;19.63;;;3.25;;
44430;SDS011;30135;47.866;-4.222;2023-10-13T15:08:56;18.33;;;3.35;;
44430;SDS011;30135;47.866;-4.222;2023-10-13T15:11:23;13.85;;;2.88;;
44430;SDS011;30135;47.866;-4.222;2023-10-13T15:14:03;17.73;;;2.10;;
44430;SDS011;30135;47.866;-4.222;2023-10-13T15:16:33;23.08;;;3.50;;
44430;SDS011;30135;47.866;-4.222;2023-10-13T15:18:59;21.15;;;2.85;;
44430;SDS011;30135;47.866;-4.222;2023-10-13T15:21:29;30.20;;;3.53;;
44430;SDS011;30135;47.866;-4.222;2023-10-13T15:24:00;21.95;;;2.80;;
44430;SDS011;30135;47.866;-4.222;2023-10-13T15:26:38;9.00;;;1.92;;
44430;SDS011;30135;47.866;-4.222;2023-10-13T15:29:13;18.63;;;2.63;;
44430;SDS011;30135;47.866;-4.222;2023-10-13T15:31:45;28.03;;;2.77;;
44430;SDS011;30135;47.866;-4.222;2023-10-13T15:34:37;23.50;;;2.83;;
44430;SDS011;30135;47.866;-4.222;2023-10-13T15:37:05;11.68;;;2.70;;
44430;SDS011;30135;47.866;-4.222;2023-10-13T15:39:31;17.65;;;2.78;;
44430;SDS011;30135;47.866;-4.222;2023-10-13T15:41:57;14.30;;;1.95;;
44430;SDS011;30135;47.866;-4.222;2023-10-13T15:44:27;15.55;;;2.35;;
44430;SDS011;30135;47.866;-4.222;2023-10-13T15:46:57;24.67;;;3.03;;
44430;SDS011;30135;47.866;-4.222;2023-10-13T15:49:24;14.70;;;2.40;;
44430;SDS011;30135;47.866;-4.222;2023-10-13T15:51:53;27.15;;;2.55;;
44430;SDS011;30135;47.866;-4.222;2023-10-13T15:54:22;22.23;;;3.92;;
44430;SDS011;30135;47.866;-4.222;2023-10-13T15:56:49;17.25;;;2.80;;
44430;SDS011;30135;47.866;-4.222;2023-10-13T15:59:21;14.40;;;2.35;;